sensor_id;sensor_type;location;lat;lon;timestamp;pressure;altitude;pressure_sealevel;temperature;humidity
31088;BME280;17745;55.914;37.554;2023-05-10T00:02:12;100154.53;;;13.01;25.52
31088;BME280;17745;55.914;37.554;2023-05-10T00:04:48;100155.81;;;12.98;25.58
31088;BME280;17745;55.914;37.554;2023-05-10T00:07:25;100159.53;;;12.97;25.65
31088;BME280;17745;55.914;37.554;2023-05-10T00:09:57;100148.09;;;12.97;25.71
31088;BME280;17745;55.914;37.554;2023-05-10T00:12:27;100143.75;;;12.91;25.73
31088;BME280;17745;55.914;37.554;2023-05-10T00:14:59;100137.56;;;12.85;25.83
31088;BME280;17745;55.914;37.554;2023-05-10T00:17:34;100144.19;;;12.82;25.95
31088;BME280;17745;55.914;37.554;2023-05-10T00:20:15;100141.53;;;12.82;25.96
31088;BME280;17745;55.914;37.554;2023-05-10T00:22:52;100143.91;;;12.84;25.94
31088;BME280;17745;55.914;37.554;2023-05-10T00:25:28;100154.88;;;12.87;26.09
31088;BME280;17745;55.914;37.554;2023-05-10T00:27:58;100150.59;;;12.86;25.98
31088;BME280;17745;55.914;37.554;2023-05-10T00:30:31;100147.94;;;12.86;25.99
31088;BME280;17745;55.914;37.554;2023-05-10T00:33:06;100147.94;;;12.86;26.02
31088;BME280;17745;55.914;37.554;2023-05-10T00:35:41;100154.88;;;12.87;26.01
31088;BME280;17745;55.914;37.554;2023-05-10T00:38:15;100150.84;;;12.85;25.99
31088;BME280;17745;55.914;37.554;2023-05-10T00:40:49;100156.41;;;12.83;26.02
31088;BME280;17745;55.914;37.554;2023-05-10T00:43:24;100148.94;;;12.80;26.05
31088;BME280;17745;55.914;37.554;2023-05-10T00:45:55;100145.22;;;12.81;26.08
31088;BME280;17745;55.914;37.554;2023-05-10T00:48:25;100150.53;;;12.81;26.11
31088;BME280;17745;55.914;37.554;2023-05-10T00:51:02;100157.97;;;12.79;26.13
31088;BME280;17745;55.914;37.554;2023-05-10T00:53:41;100156.16;;;12.85;26.02
31088;BME280;17745;55.914;37.554;2023-05-10T00:56:15;100166.72;;;12.80;26.14
31088;BME280;17745;55.914;37.554;2023-05-10T00:58:46;100159.72;;;12.73;26.16
31088;BME280;17745;55.914;37.554;2023-05-10T01:01:24;100157.22;;;12.67;26.22
31088;BME280;17745;55.914;37.554;2023-05-10T01:03:56;100155.63;;;12.66;26.28
31088;BME280;17745;55.914;37.554;2023-05-10T01:06:34;100154.50;;;12.62;26.33
31088;BME280;17745;55.914;37.554;2023-05-10T01:09:09;100161.34;;;12.57;26.37
31088;BME280;17745;55.914;37.554;2023-05-10T01:11:58;100150.72;;;12.57;26.46
31088;BME280;17745;55.914;37.554;2023-05-10T01:14:34;100148.06;;;12.57;26.45
31088;BME280;17745;55.914;37.554;2023-05-10T01:17:06;100153.06;;;12.54;26.51
31088;BME280;17745;55.914;37.554;2023-05-10T01:19:44;100153.59;;;12.56;26.42
31088;BME280;17745;55.914;37.554;2023-05-10T01:32:16;100153.28;;;12.35;26.75
31088;BME280;17745;55.914;37.554;2023-05-10T01:35:00;100147.97;;;12.35;26.77
31088;BME280;17745;55.914;37.554;2023-05-10T01:37:50;100146.59;;;12.33;26.75
31088;BME280;17745;55.914;37.554;2023-05-10T01:40:42;100151.91;;;12.33;26.71
31088;BME280;17745;55.914;37.554;2023-05-10T01:43:25;100155.59;;;12.32;26.77
31088;BME280;17745;55.914;37.554;2023-05-10T01:46:07;100156.44;;;12.32;26.74
31088;BME280;17745;55.914;37.554;2023-05-10T01:49:14;100154.81;;;12.31;26.81
31088;BME280;17745;55.914;37.554;2023-05-10T01:52:22;100151.59;;;12.29;26.90
31088;BME280;17745;55.914;37.554;2023-05-10T01:55:08;100149.16;;;12.27;26.89
31088;BME280;17745;55.914;37.554;2023-05-10T01:57:42;100147.56;;;12.26;26.88
31088;BME280;17745;55.914;37.554;2023-05-10T02:00:34;100143.88;;;12.27;26.88
31088;BME280;17745;55.914;37.554;2023-05-10T02:03:10;100141.78;;;12.29;26.93
31088;BME280;17745;55.914;37.554;2023-05-10T02:06:05;100140.72;;;12.30;26.94
31088;BME280;17745;55.914;37.554;2023-05-10T02:09:04;100141.53;;;12.31;27.00
31088;BME280;17745;55.914;37.554;2023-05-10T02:12:09;100137.03;;;12.32;27.00
31088;BME280;17745;55.914;37.554;2023-05-10T02:15:05;100142.81;;;12.28;27.07
31088;BME280;17745;55.914;37.554;2023-05-10T02:17:46;100139.59;;;12.26;27.24
31088;BME280;17745;55.914;37.554;2023-05-10T02:20:48;100135.34;;;12.25;27.22
31088;BME280;17745;55.914;37.554;2023-05-10T02:23:58;100129.53;;;12.28;27.39
31088;BME280;17745;55.914;37.554;2023-05-10T02:26:54;100129.47;;;12.23;27.43
31088;BME280;17745;55.914;37.554;2023-05-10T02:29:31;100133.81;;;12.29;27.41
31088;BME280;17745;55.914;37.554;2023-05-10T02:32:14;100131.47;;;12.33;27.34
31088;BME280;17745;55.914;37.554;2023-05-10T02:35:14;100133.97;;;12.40;27.34
31088;BME280;17745;55.914;37.554;2023-05-10T02:37:53;100133.81;;;12.47;27.45
31088;BME280;17745;55.914;37.554;2023-05-10T02:41:23;100126.66;;;12.47;27.45
31088;BME280;17745;55.914;37.554;2023-05-10T02:44:17;100124.00;;;12.47;27.55
31088;BME280;17745;55.914;37.554;2023-05-10T02:47:07;100123.50;;;12.50;27.52
31088;BME280;17745;55.914;37.554;2023-05-10T02:49:50;100123.00;;;12.53;27.49
31088;BME280;17745;55.914;37.554;2023-05-10T02:52:50;100120.94;;;12.55;27.50
31088;BME280;17745;55.914;37.554;2023-05-10T02:56:04;100117.31;;;12.62;27.50
31088;BME280;17745;55.914;37.554;2023-05-10T03:09:58;100117.66;;;12.87;27.31
31088;BME280;17745;55.914;37.554;2023-05-10T03:13:12;100116.69;;;12.94;27.23
31088;BME280;17745;55.914;37.554;2023-05-10T03:16:12;100119.97;;;13.01;27.23
31088;BME280;17745;55.914;37.554;2023-05-10T03:19:02;100114.41;;;13.02;27.27
31088;BME280;17745;55.914;37.554;2023-05-10T03:22:04;100109.91;;;13.03;27.27
31088;BME280;17745;55.914;37.554;2023-05-10T03:24:49;100110.69;;;13.04;27.16
31088;BME280;17745;55.914;37.554;2023-05-10T03:28:06;100111.84;;;13.08;27.15
31088;BME280;17745;55.914;37.554;2023-05-10T03:31:16;100112.25;;;13.22;27.09
31088;BME280;17745;55.914;37.554;2023-05-10T03:34:00;100108.59;;;13.28;27.10
31088;BME280;17745;55.914;37.554;2023-05-10T03:36:55;100108.75;;;13.38;27.13
31088;BME280;17745;55.914;37.554;2023-05-10T03:39:38;100101.72;;;13.49;27.07
31088;BME280;17745;55.914;37.554;2023-05-10T03:42:20;100112.44;;;13.60;26.92
31088;BME280;17745;55.914;37.554;2023-05-10T03:48:18;100108.72;;;13.61;27.06
31088;BME280;17745;55.914;37.554;2023-05-10T03:50:57;100108.50;;;13.62;27.05
31088;BME280;17745;55.914;37.554;2023-05-10T03:53:31;100110.72;;;13.76;26.94
31088;BME280;17745;55.914;37.554;2023-05-10T03:56:17;100112.44;;;13.87;26.88
31088;BME280;17745;55.914;37.554;2023-05-10T03:58:55;100108.00;;;13.93;27.05
31088;BME280;17745;55.914;37.554;2023-05-10T04:01:27;100117.56;;;13.94;27.04
31088;BME280;17745;55.914;37.554;2023-05-10T04:04:38;100115.97;;;13.93;27.18
31088;BME280;17745;55.914;37.554;2023-05-10T04:07:27;100105.75;;;14.12;27.23
31088;BME280;17745;55.914;37.554;2023-05-10T04:10:05;100104.25;;;14.21;27.15
31088;BME280;17745;55.914;37.554;2023-05-10T04:16:14;100109.13;;;14.35;27.08
31088;BME280;17745;55.914;37.554;2023-05-10T04:26:20;100098.41;;;14.67;26.68
31088;BME280;17745;55.914;37.554;2023-05-10T04:30:06;100097.25;;;14.96;26.51
31088;BME280;17745;55.914;37.554;2023-05-10T04:33:35;100098.09;;;15.01;26.26
31088;BME280;17745;55.914;37.554;2023-05-10T04:36:59;100092.84;;;15.22;26.12
31088;BME280;17745;55.914;37.554;2023-05-10T04:39:45;100098.47;;;15.36;25.88
31088;BME280;17745;55.914;37.554;2023-05-10T05:23:19;100068.75;;;17.19;23.46
31088;BME280;17745;55.914;37.554;2023-05-10T05:26:09;100069.53;;;17.25;23.08
31088;BME280;17745;55.914;37.554;2023-05-10T05:28:51;100066.31;;;17.18;22.55
31088;BME280;17745;55.914;37.554;2023-05-10T05:31:44;100055.41;;;17.09;22.46
31088;BME280;17745;55.914;37.554;2023-05-10T05:34:15;100067.41;;;17.17;22.59
31088;BME280;17745;55.914;37.554;2023-05-10T05:36:59;100063.41;;;17.09;22.15
31088;BME280;17745;55.914;37.554;2023-05-10T05:40:01;100065.06;;;16.94;22.33
31088;BME280;17745;55.914;37.554;2023-05-10T05:42:34;100062.72;;;16.77;22.41
31088;BME280;17745;55.914;37.554;2023-05-10T05:45:11;100056.53;;;16.87;22.55
31088;BME280;17745;55.914;37.554;2023-05-10T05:47:57;100052.75;;;17.04;22.46
31088;BME280;17745;55.914;37.554;2023-05-10T05:50:39;100053.72;;;17.23;22.42
31088;BME280;17745;55.914;37.554;2023-05-10T05:53:57;100054.44;;;17.39;22.34
31088;BME280;17745;55.914;37.554;2023-05-10T05:56:53;100055.41;;;17.54;22.52
31088;BME280;17745;55.914;37.554;2023-05-10T05:59:30;100048.72;;;17.91;22.36
31088;BME280;17745;55.914;37.554;2023-05-10T06:02:00;100048.94;;;18.29;22.26
31088;BME280;17745;55.914;37.554;2023-05-10T06:04:37;100049.12;;;18.63;22.11
31088;BME280;17745;55.914;37.554;2023-05-10T06:07:10;100043.34;;;18.75;22.04
31088;BME280;17745;55.914;37.554;2023-05-10T06:12:53;100042.94;;;19.11;21.78
31088;BME280;17745;55.914;37.554;2023-05-10T06:15:43;100043.84;;;19.25;21.83
31088;BME280;17745;55.914;37.554;2023-05-10T06:18:33;100049.78;;;19.41;21.72
31088;BME280;17745;55.914;37.554;2023-05-10T06:21:09;100043.63;;;19.41;21.57
31088;BME280;17745;55.914;37.554;2023-05-10T06:23:40;100039.38;;;19.35;21.67
31088;BME280;17745;55.914;37.554;2023-05-10T06:26:16;100042.22;;;19.43;21.69
31088;BME280;17745;55.914;37.554;2023-05-10T06:28:53;100040.03;;;19.65;21.51
31088;BME280;17745;55.914;37.554;2023-05-10T06:31:32;100037.88;;;19.81;21.34
31088;BME280;17745;55.914;37.554;2023-05-10T06:34:02;100040.00;;;19.84;21.31
31088;BME280;17745;55.914;37.554;2023-05-10T06:36:35;100034.03;;;19.87;21.34
31088;BME280;17745;55.914;37.554;2023-05-10T06:39:07;100037.88;;;19.81;20.76
31088;BME280;17745;55.914;37.554;2023-05-10T06:41:59;100034.88;;;19.49;20.85
31088;BME280;17745;55.914;37.554;2023-05-10T06:44:35;100037.72;;;19.20;21.12
31088;BME280;17745;55.914;37.554;2023-05-10T06:47:05;100032.56;;;19.04;21.18
31088;BME280;17745;55.914;37.554;2023-05-10T06:49:39;100032.38;;;18.95;21.33
31088;BME280;17745;55.914;37.554;2023-05-10T06:52:13;100029.28;;;19.07;21.18
31088;BME280;17745;55.914;37.554;2023-05-10T06:54:48;100028.94;;;19.14;21.09
31088;BME280;17745;55.914;37.554;2023-05-10T06:57:17;100033.09;;;19.25;21.06
31088;BME280;17745;55.914;37.554;2023-05-10T06:59:52;100027.06;;;19.34;21.07
31088;BME280;17745;55.914;37.554;2023-05-10T07:02:28;100024.22;;;19.25;21.00
31088;BME280;17745;55.914;37.554;2023-05-10T07:05:01;100029.97;;;19.37;21.07
31088;BME280;17745;55.914;37.554;2023-05-10T07:07:36;100029.84;;;19.81;21.02
31088;BME280;17745;55.914;37.554;2023-05-10T07:10:11;100018.81;;;20.43;20.68
31088;BME280;17745;55.914;37.554;2023-05-10T07:12:42;100017.09;;;20.76;20.34
31088;BME280;17745;55.914;37.554;2023-05-10T07:15:21;100019.50;;;20.77;20.07
31088;BME280;17745;55.914;37.554;2023-05-10T07:17:51;100027.78;;;20.67;20.15
31088;BME280;17745;55.914;37.554;2023-05-10T07:20:28;100023.28;;;20.76;20.27
31088;BME280;17745;55.914;37.554;2023-05-10T07:23:01;100020.81;;;20.80;20.27
31088;BME280;17745;55.914;37.554;2023-05-10T07:32:47;100016.66;;;21.93;19.54
31088;BME280;17745;55.914;37.554;2023-05-10T07:35:17;100010.91;;;22.17;19.42
31088;BME280;17745;55.914;37.554;2023-05-10T07:37:52;100009.87;;;22.36;19.41
31088;BME280;17745;55.914;37.554;2023-05-10T07:40:22;100006.63;;;22.16;19.38
31088;BME280;17745;55.914;37.554;2023-05-10T07:43:05;100005.91;;;22.02;19.49
31088;BME280;17745;55.914;37.554;2023-05-10T07:52:47;99992.63;;;21.14;19.04
31088;BME280;17745;55.914;37.554;2023-05-10T07:55:21;100000.56;;;20.82;19.19
31088;BME280;17745;55.914;37.554;2023-05-10T07:57:54;99999.50;;;20.55;19.37
31088;BME280;17745;55.914;37.554;2023-05-10T08:00:41;99993.31;;;20.41;19.31
31088;BME280;17745;55.914;37.554;2023-05-10T08:03:33;100000.88;;;20.25;19.52
31088;BME280;17745;55.914;37.554;2023-05-10T08:06:14;99995.38;;;20.02;19.69
31088;BME280;17745;55.914;37.554;2023-05-10T08:08:59;99996.09;;;19.75;19.91
31088;BME280;17745;55.914;37.554;2023-05-10T08:11:27;99994.28;;;19.70;19.90
31088;BME280;17745;55.914;37.554;2023-05-10T08:14:16;99993.50;;;19.69;19.96
31088;BME280;17745;55.914;37.554;2023-05-10T08:16:46;99989.91;;;19.74;19.87
31088;BME280;17745;55.914;37.554;2023-05-10T08:19:15;99986.06;;;19.80;19.91
31088;BME280;17745;55.914;37.554;2023-05-10T08:21:50;99982.94;;;19.92;19.84
31088;BME280;17745;55.914;37.554;2023-05-10T08:24:46;99976.56;;;20.02;19.80
31088;BME280;17745;55.914;37.554;2023-05-10T08:27:16;99972.97;;;20.07;19.45
31088;BME280;17745;55.914;37.554;2023-05-10T08:29:45;99971.69;;;20.18;19.52
31088;BME280;17745;55.914;37.554;2023-05-10T08:32:21;99961.44;;;20.34;19.25
31088;BME280;17745;55.914;37.554;2023-05-10T08:34:58;99958.53;;;20.59;19.22
31088;BME280;17745;55.914;37.554;2023-05-10T08:37:31;99957.59;;;20.91;18.94
31088;BME280;17745;55.914;37.554;2023-05-10T08:40:34;99954.94;;;21.14;18.95
31088;BME280;17745;55.914;37.554;2023-05-10T08:43:09;99956.37;;;21.34;18.46
31088;BME280;17745;55.914;37.554;2023-05-10T08:45:44;99942.97;;;21.43;18.38
31088;BME280;17745;55.914;37.554;2023-05-10T08:48:16;99956.28;;;21.71;18.20
31088;BME280;17745;55.914;37.554;2023-05-10T08:51:01;99949.25;;;21.38;17.58
31088;BME280;17745;55.914;37.554;2023-05-10T08:53:34;99949.75;;;21.18;17.48
31088;BME280;17745;55.914;37.554;2023-05-10T08:56:07;99952.84;;;20.88;17.55
31088;BME280;17745;55.914;37.554;2023-05-10T08:58:42;99941.75;;;20.90;17.63
31088;BME280;17745;55.914;37.554;2023-05-10T09:01:12;99938.09;;;20.71;17.62
31088;BME280;17745;55.914;37.554;2023-05-10T09:03:43;99946.28;;;20.66;17.88
31088;BME280;17745;55.914;37.554;2023-05-10T09:06:17;99940.87;;;20.80;17.88
31088;BME280;17745;55.914;37.554;2023-05-10T09:09:01;99939.44;;;20.97;17.83
31088;BME280;17745;55.914;37.554;2023-05-10T09:11:38;99941.34;;;21.19;17.83
31088;BME280;17745;55.914;37.554;2023-05-10T09:14:07;99925.06;;;21.47;17.70
31088;BME280;17745;55.914;37.554;2023-05-10T09:16:39;99930.97;;;21.81;17.70
31088;BME280;17745;55.914;37.554;2023-05-10T09:19:12;99935.16;;;21.96;17.15
31088;BME280;17745;55.914;37.554;2023-05-10T09:21:42;99927.66;;;21.84;17.00
31088;BME280;17745;55.914;37.554;2023-05-10T09:24:15;99926.53;;;22.25;17.10
31088;BME280;17745;55.914;37.554;2023-05-10T09:26:49;99924.25;;;22.94;16.93
31088;BME280;17745;55.914;37.554;2023-05-10T09:29:25;99917.84;;;23.52;16.63
31088;BME280;17745;55.914;37.554;2023-05-10T09:31:55;99918.78;;;23.56;16.14
31088;BME280;17745;55.914;37.554;2023-05-10T09:34:30;99912.97;;;23.10;16.24
31088;BME280;17745;55.914;37.554;2023-05-10T09:37:15;99916.00;;;23.08;16.28
31088;BME280;17745;55.914;37.554;2023-05-10T09:40:06;99921.22;;;23.31;16.25
31088;BME280;17745;55.914;37.554;2023-05-10T09:46:43;99906.94;;;22.60;16.59
31088;BME280;17745;55.914;37.554;2023-05-10T09:49:45;99908.59;;;22.21;16.54
31088;BME280;17745;55.914;37.554;2023-05-10T09:52:24;99910.41;;;21.94;16.94
31088;BME280;17745;55.914;37.554;2023-05-10T09:55:14;99896.00;;;21.98;16.83
31088;BME280;17745;55.914;37.554;2023-05-10T09:58:05;99906.72;;;22.30;16.72
31088;BME280;17745;55.914;37.554;2023-05-10T10:01:00;99890.84;;;22.28;16.59
31088;BME280;17745;55.914;37.554;2023-05-10T10:03:46;99893.38;;;22.34;16.61
31088;BME280;17745;55.914;37.554;2023-05-10T10:06:23;99893.22;;;22.30;16.68
31088;BME280;17745;55.914;37.554;2023-05-10T10:08:59;99892.59;;;22.33;16.66
31088;BME280;17745;55.914;37.554;2023-05-10T10:11:39;99894.41;;;22.64;16.73
31088;BME280;17745;55.914;37.554;2023-05-10T10:14:24;99891.06;;;23.03;16.32
31088;BME280;17745;55.914;37.554;2023-05-10T10:17:02;99889.91;;;23.21;16.36
31088;BME280;17745;55.914;37.554;2023-05-10T10:19:39;99882.62;;;23.39;16.36
31088;BME280;17745;55.914;37.554;2023-05-10T10:22:11;99884.47;;;23.48;16.30
31088;BME280;17745;55.914;37.554;2023-05-10T10:24:43;99876.81;;;23.59;16.34
31088;BME280;17745;55.914;37.554;2023-05-10T10:27:26;99875.19;;;23.96;16.24
31088;BME280;17745;55.914;37.554;2023-05-10T10:30:28;99875.38;;;24.51;15.94
31088;BME280;17745;55.914;37.554;2023-05-10T10:36:14;99865.94;;;24.79;15.39
31088;BME280;17745;55.914;37.554;2023-05-10T10:39:01;99861.97;;;24.76;15.36
31088;BME280;17745;55.914;37.554;2023-05-10T10:41:37;99871.16;;;24.63;15.45
31088;BME280;17745;55.914;37.554;2023-05-10T10:44:37;99862.81;;;24.89;15.59
31088;BME280;17745;55.914;37.554;2023-05-10T10:47:34;99861.00;;;25.27;15.40
31088;BME280;17745;55.914;37.554;2023-05-10T10:50:19;99855.47;;;25.23;15.21
31088;BME280;17745;55.914;37.554;2023-05-10T10:53:14;99856.19;;;25.33;15.06
31088;BME280;17745;55.914;37.554;2023-05-10T10:56:07;99856.69;;;25.13;14.91
31088;BME280;17745;55.914;37.554;2023-05-10T10:58:38;99847.84;;;24.49;15.19
31088;BME280;17745;55.914;37.554;2023-05-10T11:01:12;99856.25;;;24.05;15.50
31088;BME280;17745;55.914;37.554;2023-05-10T11:04:24;99854.00;;;24.07;15.61
31088;BME280;17745;55.914;37.554;2023-05-10T11:07:19;99839.59;;;24.24;15.63
31088;BME280;17745;55.914;37.554;2023-05-10T11:10:34;99841.75;;;24.10;15.58
31088;BME280;17745;55.914;37.554;2023-05-10T11:13:40;99842.88;;;23.79;15.93
31088;BME280;17745;55.914;37.554;2023-05-10T11:16:42;99836.88;;;23.94;15.91
31088;BME280;17745;55.914;37.554;2023-05-10T11:19:57;99825.41;;;24.27;15.67
31088;BME280;17745;55.914;37.554;2023-05-10T11:22:57;99832.00;;;24.18;15.58
31088;BME280;17745;55.914;37.554;2023-05-10T11:30:05;99823.69;;;24.23;15.33
31088;BME280;17745;55.914;37.554;2023-05-10T11:33:25;99821.13;;;23.96;15.69
31088;BME280;17745;55.914;37.554;2023-05-10T11:36:00;99820.84;;;23.89;15.46
31088;BME280;17745;55.914;37.554;2023-05-10T11:38:39;99818.06;;;23.77;15.54
31088;BME280;17745;55.914;37.554;2023-05-10T11:41:14;99812.38;;;23.69;15.52
31088;BME280;17745;55.914;37.554;2023-05-10T11:44:17;99801.47;;;23.09;15.82
31088;BME280;17745;55.914;37.554;2023-05-10T11:51:10;99807.69;;;22.13;16.64
31088;BME280;17745;55.914;37.554;2023-05-10T11:53:58;99814.75;;;21.74;16.68
31088;BME280;17745;55.914;37.554;2023-05-10T11:56:52;99806.06;;;21.45;16.96
31088;BME280;17745;55.914;37.554;2023-05-10T11:59:23;99809.66;;;21.32;17.13
31088;BME280;17745;55.914;37.554;2023-05-10T12:01:56;99812.25;;;21.46;17.08
31088;BME280;17745;55.914;37.554;2023-05-10T12:04:42;99806.56;;;21.47;17.06
31088;BME280;17745;55.914;37.554;2023-05-10T12:07:15;99804.44;;;21.35;17.11
31088;BME280;17745;55.914;37.554;2023-05-10T12:10:08;99800.16;;;21.34;17.19
31088;BME280;17745;55.914;37.554;2023-05-10T12:12:43;99798.59;;;21.42;17.31
31088;BME280;17745;55.914;37.554;2023-05-10T12:15:19;99792.75;;;21.49;17.29
31088;BME280;17745;55.914;37.554;2023-05-10T12:17:52;99802.53;;;21.67;17.20
31088;BME280;17745;55.914;37.554;2023-05-10T12:20:23;99800.72;;;21.63;17.13
31088;BME280;17745;55.914;37.554;2023-05-10T12:22:57;99788.63;;;21.42;17.33
31088;BME280;17745;55.914;37.554;2023-05-10T12:25:30;99791.84;;;21.22;17.59
31088;BME280;17745;55.914;37.554;2023-05-10T12:28:03;99796.94;;;21.23;17.77
31088;BME280;17745;55.914;37.554;2023-05-10T12:30:41;99790.00;;;21.31;17.75
31088;BME280;17745;55.914;37.554;2023-05-10T12:33:12;99788.81;;;21.46;17.60
31088;BME280;17745;55.914;37.554;2023-05-10T12:35:46;99784.00;;;21.75;17.56
31088;BME280;17745;55.914;37.554;2023-05-10T12:38:32;99779.94;;;22.04;17.29
31088;BME280;17745;55.914;37.554;2023-05-10T12:41:03;99780.25;;;22.46;17.18
31088;BME280;17745;55.914;37.554;2023-05-10T12:43:33;99781.03;;;22.82;16.92
31088;BME280;17745;55.914;37.554;2023-05-10T12:46:06;99777.81;;;22.97;16.84
31088;BME280;17745;55.914;37.554;2023-05-10T12:48:37;99779.25;;;22.95;16.87
31088;BME280;17745;55.914;37.554;2023-05-10T12:51:07;99779.41;;;22.98;16.88
31088;BME280;17745;55.914;37.554;2023-05-10T12:53:47;99773.75;;;22.65;16.87
31088;BME280;17745;55.914;37.554;2023-05-10T12:56:20;99775.97;;;22.19;17.18
31088;BME280;17745;55.914;37.554;2023-05-10T12:58:48;99781.66;;;21.91;17.36
31088;BME280;17745;55.914;37.554;2023-05-10T13:01:18;99776.41;;;21.77;17.35
31088;BME280;17745;55.914;37.554;2023-05-10T13:04:14;99779.44;;;22.02;17.42
31088;BME280;17745;55.914;37.554;2023-05-10T13:06:56;99774.72;;;22.51;17.24
31088;BME280;17745;55.914;37.554;2023-05-10T13:09:29;99768.97;;;22.88;17.08
31088;BME280;17745;55.914;37.554;2023-05-10T13:12:07;99773.34;;;23.10;16.92
31088;BME280;17745;55.914;37.554;2023-05-10T13:14:37;99769.06;;;23.09;16.80
31088;BME280;17745;55.914;37.554;2023-05-10T13:17:40;99767.53;;;22.82;16.88
31088;BME280;17745;55.914;37.554;2023-05-10T13:20:25;99772.81;;;22.43;17.00
31088;BME280;17745;55.914;37.554;2023-05-10T13:23:31;99770.09;;;22.25;17.02
31088;BME280;17745;55.914;37.554;2023-05-10T13:26:16;99777.69;;;21.97;17.24
31088;BME280;17745;55.914;37.554;2023-05-10T13:29:25;99767.06;;;21.83;17.40
31088;BME280;17745;55.914;37.554;2023-05-10T13:32:33;99767.66;;;21.71;17.50
31088;BME280;17745;55.914;37.554;2023-05-10T13:35:22;99758.56;;;21.58;17.73
31088;BME280;17745;55.914;37.554;2023-05-10T13:38:20;99757.31;;;21.64;17.79
31088;BME280;17745;55.914;37.554;2023-05-10T13:41:10;99762.31;;;21.80;17.78
31088;BME280;17745;55.914;37.554;2023-05-10T13:43:51;99756.09;;;21.70;17.87
31088;BME280;17745;55.914;37.554;2023-05-10T13:46:22;99749.75;;;21.75;17.92
31088;BME280;17745;55.914;37.554;2023-05-10T13:49:03;99754.88;;;21.94;17.84
31088;BME280;17745;55.914;37.554;2023-05-10T13:51:58;99749.81;;;22.10;17.74
31088;BME280;17745;55.914;37.554;2023-05-10T13:54:36;99756.78;;;22.29;17.63
31088;BME280;17745;55.914;37.554;2023-05-10T13:57:23;99743.94;;;22.35;17.63
31088;BME280;17745;55.914;37.554;2023-05-10T13:59:55;99747.88;;;21.93;17.67
31088;BME280;17745;55.914;37.554;2023-05-10T14:02:36;99744.19;;;21.71;17.87
31088;BME280;17745;55.914;37.554;2023-05-10T14:05:30;99741.16;;;21.64;17.96
31088;BME280;17745;55.914;37.554;2023-05-10T14:08:13;99748.16;;;21.65;18.11
31088;BME280;17745;55.914;37.554;2023-05-10T14:11:17;99748.75;;;21.62;18.20
31088;BME280;17745;55.914;37.554;2023-05-10T14:17:02;99747.69;;;21.72;18.23
31088;BME280;17745;55.914;37.554;2023-05-10T14:19:35;99746.59;;;21.73;18.32
31088;BME280;17745;55.914;37.554;2023-05-10T14:22:12;99742.72;;;21.56;18.37
31088;BME280;17745;55.914;37.554;2023-05-10T14:24:54;99743.84;;;21.15;18.69
31088;BME280;17745;55.914;37.554;2023-05-10T14:27:43;99741.37;;;20.96;18.93
31088;BME280;17745;55.914;37.554;2023-05-10T14:30:29;99740.56;;;20.95;18.88
31088;BME280;17745;55.914;37.554;2023-05-10T14:33:08;99739.91;;;21.21;18.81
31088;BME280;17745;55.914;37.554;2023-05-10T14:35:50;99733.94;;;21.42;18.79
31088;BME280;17745;55.914;37.554;2023-05-10T14:38:22;99743.84;;;21.64;18.75
31088;BME280;17745;55.914;37.554;2023-05-10T14:41:02;99736.63;;;21.74;18.71
31088;BME280;17745;55.914;37.554;2023-05-10T14:43:37;99736.63;;;21.74;18.72
31088;BME280;17745;55.914;37.554;2023-05-10T14:46:23;99740.25;;;21.78;18.79
31088;BME280;17745;55.914;37.554;2023-05-10T14:49:04;99736.59;;;21.65;18.75
31088;BME280;17745;55.914;37.554;2023-05-10T14:51:48;99740.47;;;21.50;18.87
31088;BME280;17745;55.914;37.554;2023-05-10T14:54:40;99737.62;;;21.46;18.96
31088;BME280;17745;55.914;37.554;2023-05-10T14:57:12;99736.19;;;21.49;19.00
31088;BME280;17745;55.914;37.554;2023-05-10T14:59:50;99732.06;;;21.42;19.03
31088;BME280;17745;55.914;37.554;2023-05-10T15:06:23;99732.47;;;21.27;19.23
31088;BME280;17745;55.914;37.554;2023-05-10T15:09:22;99732.47;;;21.27;19.26
31088;BME280;17745;55.914;37.554;2023-05-10T15:12:31;99729.44;;;21.20;19.23
31088;BME280;17745;55.914;37.554;2023-05-10T15:15:28;99722.00;;;21.17;19.30
31088;BME280;17745;55.914;37.554;2023-05-10T15:18:37;99726.44;;;21.12;19.39
31088;BME280;17745;55.914;37.554;2023-05-10T15:21:29;99726.25;;;21.09;19.40
31088;BME280;17745;55.914;37.554;2023-05-10T15:24:13;99722.25;;;21.06;19.49
31088;BME280;17745;55.914;37.554;2023-05-10T15:30:19;99712.25;;;20.98;19.73
31088;BME280;17745;55.914;37.554;2023-05-10T15:33:05;99715.44;;;21.00;19.72
31088;BME280;17745;55.914;37.554;2023-05-10T15:35:42;99717.16;;;20.96;19.79
31088;BME280;17745;55.914;37.554;2023-05-10T15:38:42;99718.37;;;20.90;19.92
31088;BME280;17745;55.914;37.554;2023-05-10T15:41:44;99717.41;;;20.85;20.09
31088;BME280;17745;55.914;37.554;2023-05-10T15:44:54;99721.94;;;20.76;20.04
31088;BME280;17745;55.914;37.554;2023-05-10T15:48:11;99709.09;;;20.73;20.00
31088;BME280;17745;55.914;37.554;2023-05-10T15:50:54;99716.66;;;20.71;20.03
31088;BME280;17745;55.914;37.554;2023-05-10T15:54:03;99709.56;;;20.98;19.97
31088;BME280;17745;55.914;37.554;2023-05-10T15:56:54;99709.56;;;20.98;19.97
31088;BME280;17745;55.914;37.554;2023-05-10T15:59:26;99717.69;;;20.52;20.28
31088;BME280;17745;55.914;37.554;2023-05-10T16:02:19;99716.03;;;20.42;20.38
31088;BME280;17745;55.914;37.554;2023-05-10T16:05:33;99709.50;;;20.35;20.71
31088;BME280;17745;55.914;37.554;2023-05-10T16:08:23;99714.31;;;20.24;20.73
31088;BME280;17745;55.914;37.554;2023-05-10T16:17:27;99707.69;;;20.07;21.01